sensor_id;sensor_type;location;lat;lon;timestamp;P1;durP1;ratioP1;P2;durP2;ratioP2
12163;SDS011;6145;50.192;10.064;2023-09-12T07:34:23;19.70;;;12.83;;
12163;SDS011;6145;50.192;10.064;2023-09-12T07:36:50;13.45;;;9.68;;
12163;SDS011;6145;50.192;10.064;2023-09-12T07:39:17;8.35;;;7.50;;
12163;SDS011;6145;50.192;10.064;2023-09-12T07:41:44;10.32;;;8.27;;
12163;SDS011;6145;50.192;10.064;2023-09-12T07:44:10;11.52;;;8.45;;
12163;SDS011;6145;50.192;10.064;2023-09-12T07:46:40;10.82;;;8.73;;
12163;SDS011;6145;50.192;10.064;2023-09-12T07:49:07;9.80;;;8.80;;
12163;SDS011;6145;50.192;10.064;2023-09-12T07:51:35;10.48;;;8.43;;
12163;SDS011;6145;50.192;10.064;2023-09-12T07:54:02;10.75;;;7.72;;
12163;SDS011;6145;50.192;10.064;2023-09-12T07:56:29;10.77;;;7.82;;
12163;SDS011;6145;50.192;10.064;2023-09-12T07:58:57;10.40;;;7.43;;
12163;SDS011;6145;50.192;10.064;2023-09-12T08:01:24;10.00;;;7.57;;
12163;SDS011;6145;50.192;10.064;2023-09-12T08:03:52;8.45;;;7.05;;
12163;SDS011;6145;50.192;10.064;2023-09-12T08:06:19;8.95;;;7.07;;
12163;SDS011;6145;50.192;10.064;2023-09-12T08:08:49;9.95;;;7.43;;
12163;SDS011;6145;50.192;10.064;2023-09-12T08:11:16;7.85;;;6.97;;
12163;SDS011;6145;50.192;10.064;2023-09-12T08:13:43;9.45;;;7.50;;
12163;SDS011;6145;50.192;10.064;2023-09-12T08:16:12;9.98;;;7.10;;
12163;SDS011;6145;50.192;10.064;2023-09-12T08:18:38;13.85;;;8.07;;
12163;SDS011;6145;50.192;10.064;2023-09-12T08:21:05;12.75;;;8.30;;
12163;SDS011;6145;50.192;10.064;2023-09-12T08:23:32;9.25;;;7.35;;
12163;SDS011;6145;50.192;10.064;2023-09-12T08:26:02;10.90;;;7.22;;
12163;SDS011;6145;50.192;10.064;2023-09-12T08:28:29;9.30;;;7.82;;
12163;SDS011;6145;50.192;10.064;2023-09-12T08:30:56;9.13;;;7.13;;
12163;SDS011;6145;50.192;10.064;2023-09-12T08:33:23;8.40;;;6.78;;
12163;SDS011;6145;50.192;10.064;2023-09-12T08:35:50;12.35;;;7.50;;
12163;SDS011;6145;50.192;10.064;2023-09-12T08:38:16;9.50;;;6.80;;
12163;SDS011;6145;50.192;10.064;2023-09-12T08:40:47;9.23;;;7.03;;
12163;SDS011;6145;50.192;10.064;2023-09-12T08:43:16;10.15;;;8.18;;
12163;SDS011;6145;50.192;10.064;2023-09-12T08:45:43;15.20;;;8.02;;
12163;SDS011;6145;50.192;10.064;2023-09-12T08:48:11;11.88;;;7.53;;
12163;SDS011;6145;50.192;10.064;2023-09-12T08:50:38;10.35;;;7.43;;
12163;SDS011;6145;50.192;10.064;2023-09-12T08:53:06;10.73;;;7.95;;
12163;SDS011;6145;50.192;10.064;2023-09-12T08:55:33;14.32;;;7.32;;
12163;SDS011;6145;50.192;10.064;2023-09-12T08:58:00;7.38;;;6.68;;
12163;SDS011;6145;50.192;10.064;2023-09-12T09:00:30;9.68;;;7.55;;
12163;SDS011;6145;50.192;10.064;2023-09-12T09:02:58;15.73;;;8.85;;
12163;SDS011;6145;50.192;10.064;2023-09-12T09:05:25;14.40;;;8.38;;
12163;SDS011;6145;50.192;10.064;2023-09-12T09:07:55;9.43;;;7.25;;
12163;SDS011;6145;50.192;10.064;2023-09-12T09:10:22;8.02;;;6.65;;
12163;SDS011;6145;50.192;10.064;2023-09-12T09:12:49;8.85;;;6.93;;
12163;SDS011;6145;50.192;10.064;2023-09-12T09:15:19;9.27;;;7.10;;
12163;SDS011;6145;50.192;10.064;2023-09-12T09:17:49;9.85;;;7.70;;
12163;SDS011;6145;50.192;10.064;2023-09-12T09:20:25;8.68;;;7.10;;
12163;SDS011;6145;50.192;10.064;2023-09-12T09:22:59;12.48;;;7.97;;
12163;SDS011;6145;50.192;10.064;2023-09-12T09:25:28;13.10;;;9.05;;
12163;SDS011;6145;50.192;10.064;2023-09-12T09:27:56;12.38;;;7.25;;
12163;SDS011;6145;50.192;10.064;2023-09-12T09:30:38;9.48;;;7.68;;
12163;SDS011;6145;50.192;10.064;2023-09-12T09:33:08;10.32;;;7.53;;
12163;SDS011;6145;50.192;10.064;2023-09-12T09:35:36;8.95;;;7.30;;
12163;SDS011;6145;50.192;10.064;2023-09-12T09:38:05;9.15;;;7.22;;
12163;SDS011;6145;50.192;10.064;2023-09-12T09:40:33;11.27;;;6.88;;
12163;SDS011;6145;50.192;10.064;2023-09-12T09:43:01;8.65;;;6.95;;
12163;SDS011;6145;50.192;10.064;2023-09-12T09:45:29;9.98;;;7.35;;
12163;SDS011;6145;50.192;10.064;2023-09-12T09:47:57;6.93;;;6.10;;
12163;SDS011;6145;50.192;10.064;2023-09-12T09:50:26;13.02;;;6.78;;
12163;SDS011;6145;50.192;10.064;2023-09-12T09:52:54;9.15;;;6.63;;
12163;SDS011;6145;50.192;10.064;2023-09-12T09:55:22;13.00;;;7.63;;
12163;SDS011;6145;50.192;10.064;2023-09-12T09:57:50;11.65;;;7.65;;
12163;SDS011;6145;50.192;10.064;2023-09-12T10:00:18;8.48;;;6.60;;
12163;SDS011;6145;50.192;10.064;2023-09-12T10:02:49;13.23;;;7.28;;
12163;SDS011;6145;50.192;10.064;2023-09-12T10:05:17;9.50;;;6.63;;
12163;SDS011;6145;50.192;10.064;2023-09-12T10:07:48;10.25;;;7.53;;
12163;SDS011;6145;50.192;10.064;2023-09-12T10:10:18;9.10;;;7.00;;
12163;SDS011;6145;50.192;10.064;2023-09-12T10:12:48;11.98;;;7.50;;
12163;SDS011;6145;50.192;10.064;2023-09-12T11:38:59;10.73;;;6.30;;
12163;SDS011;6145;50.192;10.064;2023-09-12T11:41:40;8.60;;;6.65;;
12163;SDS011;6145;50.192;10.064;2023-09-12T11:44:07;11.88;;;6.28;;
12163;SDS011;6145;50.192;10.064;2023-09-12T11:46:48;9.25;;;6.75;;
12163;SDS011;6145;50.192;10.064;2023-09-12T11:49:16;9.98;;;7.05;;
12163;SDS011;6145;50.192;10.064;2023-09-12T11:51:48;8.30;;;6.20;;
12163;SDS011;6145;50.192;10.064;2023-09-12T11:54:17;6.65;;;6.03;;
12163;SDS011;6145;50.192;10.064;2023-09-12T11:56:46;10.10;;;6.47;;
12163;SDS011;6145;50.192;10.064;2023-09-12T11:59:13;10.43;;;6.25;;
12163;SDS011;6145;50.192;10.064;2023-09-12T12:01:41;10.38;;;6.85;;
12163;SDS011;6145;50.192;10.064;2023-09-12T12:04:08;7.38;;;6.63;;
12163;SDS011;6145;50.192;10.064;2023-09-12T12:06:35;7.25;;;5.90;;
12163;SDS011;6145;50.192;10.064;2023-09-12T12:09:02;9.00;;;7.00;;
12163;SDS011;6145;50.192;10.064;2023-09-12T12:11:32;10.25;;;6.63;;
12163;SDS011;6145;50.192;10.064;2023-09-12T12:14:08;10.85;;;6.15;;
12163;SDS011;6145;50.192;10.064;2023-09-12T12:16:37;10.20;;;6.10;;
12163;SDS011;6145;50.192;10.064;2023-09-12T12:19:03;8.90;;;5.97;;
12163;SDS011;6145;50.192;10.064;2023-09-12T12:21:30;8.38;;;6.43;;
12163;SDS011;6145;50.192;10.064;2023-09-12T12:23:58;7.50;;;6.50;;
12163;SDS011;6145;50.192;10.064;2023-09-12T12:26:25;8.18;;;6.70;;
12163;SDS011;6145;50.192;10.064;2023-09-12T12:28:53;8.18;;;6.63;;
12163;SDS011;6145;50.192;10.064;2023-09-12T12:31:20;7.28;;;5.25;;
12163;SDS011;6145;50.192;10.064;2023-09-12T12:33:49;6.97;;;6.28;;
12163;SDS011;6145;50.192;10.064;2023-09-12T12:36:16;7.82;;;6.32;;
12163;SDS011;6145;50.192;10.064;2023-09-12T12:38:43;10.38;;;5.80;;
12163;SDS011;6145;50.192;10.064;2023-09-12T12:41:13;13.93;;;6.30;;
12163;SDS011;6145;50.192;10.064;2023-09-12T12:43:40;9.90;;;6.00;;
12163;SDS011;6145;50.192;10.064;2023-09-12T12:46:11;10.30;;;6.90;;
12163;SDS011;6145;50.192;10.064;2023-09-12T12:48:38;8.50;;;6.28;;
12163;SDS011;6145;50.192;10.064;2023-09-12T12:51:13;12.05;;;6.97;;
12163;SDS011;6145;50.192;10.064;2023-09-12T12:53:42;9.45;;;6.63;;
12163;SDS011;6145;50.192;10.064;2023-09-12T12:56:20;7.80;;;6.40;;
12163;SDS011;6145;50.192;10.064;2023-09-12T12:58:48;7.68;;;6.00;;
12163;SDS011;6145;50.192;10.064;2023-09-12T13:01:18;7.88;;;6.60;;
12163;SDS011;6145;50.192;10.064;2023-09-12T13:03:45;8.98;;;6.05;;
12163;SDS011;6145;50.192;10.064;2023-09-12T13:06:12;9.10;;;6.32;;
12163;SDS011;6145;50.192;10.064;2023-09-12T13:08:43;8.48;;;6.35;;
12163;SDS011;6145;50.192;10.064;2023-09-12T13:11:11;7.47;;;5.78;;
12163;SDS011;6145;50.192;10.064;2023-09-12T13:13:40;8.50;;;6.35;;
12163;SDS011;6145;50.192;10.064;2023-09-12T13:16:08;8.70;;;6.20;;
12163;SDS011;6145;50.192;10.064;2023-09-12T13:18:38;8.57;;;6.40;;
12163;SDS011;6145;50.192;10.064;2023-09-12T13:21:06;7.55;;;6.22;;
12163;SDS011;6145;50.192;10.064;2023-09-12T13:23:33;9.65;;;6.72;;
12163;SDS011;6145;50.192;10.064;2023-09-12T13:26:03;7.45;;;6.35;;
12163;SDS011;6145;50.192;10.064;2023-09-12T13:28:30;9.63;;;5.88;;
12163;SDS011;6145;50.192;10.064;2023-09-12T13:30:57;8.45;;;5.75;;
12163;SDS011;6145;50.192;10.064;2023-09-12T13:33:24;7.15;;;6.13;;
12163;SDS011;6145;50.192;10.064;2023-09-12T13:35:52;6.85;;;6.15;;
12163;SDS011;6145;50.192;10.064;2023-09-12T13:38:19;9.32;;;6.22;;
12163;SDS011;6145;50.192;10.064;2023-09-12T13:40:47;7.03;;;6.30;;
12163;SDS011;6145;50.192;10.064;2023-09-12T13:43:15;9.10;;;5.85;;
12163;SDS011;6145;50.192;10.064;2023-09-12T13:45:42;8.00;;;6.45;;
12163;SDS011;6145;50.192;10.064;2023-09-12T13:48:09;9.52;;;6.95;;
12163;SDS011;6145;50.192;10.064;2023-09-12T13:50:37;7.57;;;6.45;;
12163;SDS011;6145;50.192;10.064;2023-09-12T13:53:06;8.02;;;6.32;;
12163;SDS011;6145;50.192;10.064;2023-09-12T13:55:33;11.02;;;6.22;;
12163;SDS011;6145;50.192;10.064;2023-09-12T13:58:01;7.28;;;6.00;;
12163;SDS011;6145;50.192;10.064;2023-09-12T14:00:28;8.40;;;6.15;;
12163;SDS011;6145;50.192;10.064;2023-09-12T14:02:55;8.23;;;6.68;;
12163;SDS011;6145;50.192;10.064;2023-09-12T14:05:22;6.65;;;5.88;;
12163;SDS011;6145;50.192;10.064;2023-09-12T14:07:50;7.97;;;5.97;;
12163;SDS011;6145;50.192;10.064;2023-09-12T14:10:18;6.72;;;6.05;;
12163;SDS011;6145;50.192;10.064;2023-09-12T14:12:45;11.27;;;6.43;;
12163;SDS011;6145;50.192;10.064;2023-09-12T14:15:12;8.60;;;6.47;;
12163;SDS011;6145;50.192;10.064;2023-09-12T14:17:40;7.13;;;6.15;;
12163;SDS011;6145;50.192;10.064;2023-09-12T14:20:10;8.98;;;6.60;;
12163;SDS011;6145;50.192;10.064;2023-09-12T14:22:40;7.55;;;6.75;;
12163;SDS011;6145;50.192;10.064;2023-09-12T14:25:08;12.77;;;6.50;;
12163;SDS011;6145;50.192;10.064;2023-09-12T14:34:56;8.32;;;6.05;;
12163;SDS011;6145;50.192;10.064;2023-09-12T14:37:23;6.75;;;5.97;;
12163;SDS011;6145;50.192;10.064;2023-09-12T14:40:02;8.25;;;6.00;;
12163;SDS011;6145;50.192;10.064;2023-09-12T14:42:40;7.82;;;5.63;;
12163;SDS011;6145;50.192;10.064;2023-09-12T14:45:10;10.43;;;6.10;;
12163;SDS011;6145;50.192;10.064;2023-09-12T14:47:37;8.70;;;6.28;;
12163;SDS011;6145;50.192;10.064;2023-09-12T14:50:06;10.50;;;6.45;;
12163;SDS011;6145;50.192;10.064;2023-09-12T14:52:34;6.78;;;5.88;;
12163;SDS011;6145;50.192;10.064;2023-09-12T14:55:01;9.73;;;6.20;;
12163;SDS011;6145;50.192;10.064;2023-09-12T14:57:32;6.57;;;5.72;;
12163;SDS011;6145;50.192;10.064;2023-09-12T15:00:05;7.38;;;5.78;;
12163;SDS011;6145;50.192;10.064;2023-09-12T15:02:33;6.32;;;5.72;;
12163;SDS011;6145;50.192;10.064;2023-09-12T15:05:00;7.53;;;5.68;;
12163;SDS011;6145;50.192;10.064;2023-09-12T15:07:31;9.32;;;6.25;;
12163;SDS011;6145;50.192;10.064;2023-09-12T15:09:59;6.95;;;6.18;;
12163;SDS011;6145;50.192;10.064;2023-09-12T15:12:26;7.38;;;5.72;;
12163;SDS011;6145;50.192;10.064;2023-09-12T15:14:53;9.02;;;5.80;;
12163;SDS011;6145;50.192;10.064;2023-09-12T15:17:20;7.05;;;5.75;;
12163;SDS011;6145;50.192;10.064;2023-09-12T15:19:47;7.45;;;5.97;;
12163;SDS011;6145;50.192;10.064;2023-09-12T15:22:14;7.20;;;6.10;;
12163;SDS011;6145;50.192;10.064;2023-09-12T15:24:42;7.25;;;5.97;;
12163;SDS011;6145;50.192;10.064;2023-09-12T15:27:09;10.48;;;7.07;;
12163;SDS011;6145;50.192;10.064;2023-09-12T15:29:36;9.35;;;6.63;;
12163;SDS011;6145;50.192;10.064;2023-09-12T15:32:03;10.13;;;6.03;;
12163;SDS011;6145;50.192;10.064;2023-09-12T15:34:31;10.98;;;6.50;;
12163;SDS011;6145;50.192;10.064;2023-09-12T15:37:07;6.78;;;6.05;;
12163;SDS011;6145;50.192;10.064;2023-09-12T16:37:26;8.07;;;6.28;;
12163;SDS011;6145;50.192;10.064;2023-09-12T16:39:54;7.78;;;6.10;;
12163;SDS011;6145;50.192;10.064;2023-09-12T16:42:20;7.78;;;5.65;;
12163;SDS011;6145;50.192;10.064;2023-09-12T16:44:47;8.23;;;5.60;;
12163;SDS011;6145;50.192;10.064;2023-09-12T16:47:15;7.88;;;6.03;;
12163;SDS011;6145;50.192;10.064;2023-09-12T16:49:42;7.15;;;5.97;;
12163;SDS011;6145;50.192;10.064;2023-09-12T16:52:09;8.55;;;5.85;;
12163;SDS011;6145;50.192;10.064;2023-09-12T16:54:39;10.23;;;6.55;;
12163;SDS011;6145;50.192;10.064;2023-09-12T16:57:09;6.95;;;6.18;;
12163;SDS011;6145;50.192;10.064;2023-09-12T16:59:38;9.68;;;6.25;;
12163;SDS011;6145;50.192;10.064;2023-09-12T17:02:06;7.57;;;6.78;;
12163;SDS011;6145;50.192;10.064;2023-09-12T17:04:35;10.40;;;6.35;;
12163;SDS011;6145;50.192;10.064;2023-09-12T17:07:02;7.20;;;5.90;;
12163;SDS011;6145;50.192;10.064;2023-09-12T17:09:29;9.07;;;6.72;;
12163;SDS011;6145;50.192;10.064;2023-09-12T17:12:00;9.13;;;6.18;;
12163;SDS011;6145;50.192;10.064;2023-09-12T17:14:27;6.18;;;5.45;;
12163;SDS011;6145;50.192;10.064;2023-09-12T17:16:54;7.90;;;6.57;;
12163;SDS011;6145;50.192;10.064;2023-09-12T17:19:22;6.55;;;5.93;;
12163;SDS011;6145;50.192;10.064;2023-09-12T17:21:49;6.40;;;5.80;;
12163;SDS011;6145;50.192;10.064;2023-09-12T17:24:16;7.80;;;5.78;;
12163;SDS011;6145;50.192;10.064;2023-09-12T17:26:42;7.32;;;5.85;;
12163;SDS011;6145;50.192;10.064;2023-09-12T17:29:11;7.15;;;5.68;;
12163;SDS011;6145;50.192;10.064;2023-09-12T17:31:38;7.32;;;6.28;;
